sensor_id;sensor_type;location;lat;lon;timestamp;temperature;humidity
7192;DHT22;3637;51.494;11.958;2022-07-06T00:02:48;19.00;65.40
7192;DHT22;3637;51.494;11.958;2022-07-06T00:05:51;19.00;65.50
7192;DHT22;3637;51.494;11.958;2022-07-06T00:08:53;19.00;65.30
7192;DHT22;3637;51.494;11.958;2022-07-06T00:11:55;19.00;65.40
7192;DHT22;3637;51.494;11.958;2022-07-06T00:14:57;18.90;65.70
7192;DHT22;3637;51.494;11.958;2022-07-06T00:17:59;18.80;65.30
7192;DHT22;3637;51.494;11.958;2022-07-06T00:21:02;18.80;65.40
7192;DHT22;3637;51.494;11.958;2022-07-06T00:24:04;18.80;65.10
7192;DHT22;3637;51.494;11.958;2022-07-06T00:27:06;18.80;64.60
7192;DHT22;3637;51.494;11.958;2022-07-06T00:30:08;18.80;64.00
7192;DHT22;3637;51.494;11.958;2022-07-06T00:33:10;18.80;64.10
7192;DHT22;3637;51.494;11.958;2022-07-06T00:36:14;18.70;64.60
7192;DHT22;3637;51.494;11.958;2022-07-06T00:39:16;18.70;64.40
7192;DHT22;3637;51.494;11.958;2022-07-06T00:42:19;18.70;64.10
7192;DHT22;3637;51.494;11.958;2022-07-06T00:45:21;18.70;64.50
7192;DHT22;3637;51.494;11.958;2022-07-06T00:48:23;18.60;64.40
7192;DHT22;3637;51.494;11.958;2022-07-06T00:51:29;18.60;64.20
7192;DHT22;3637;51.494;11.958;2022-07-06T00:54:32;18.60;63.90
7192;DHT22;3637;51.494;11.958;2022-07-06T00:57:34;18.60;64.10
7192;DHT22;3637;51.494;11.958;2022-07-06T01:00:36;18.50;64.50
7192;DHT22;3637;51.494;11.958;2022-07-06T01:03:38;18.50;64.70
7192;DHT22;3637;51.494;11.958;2022-07-06T01:06:43;18.40;64.60
7192;DHT22;3637;51.494;11.958;2022-07-06T01:09:46;18.40;64.60
7192;DHT22;3637;51.494;11.958;2022-07-06T01:12:48;18.40;65.50
7192;DHT22;3637;51.494;11.958;2022-07-06T01:15:50;18.40;65.20
7192;DHT22;3637;51.494;11.958;2022-07-06T01:18:52;18.40;65.40
7192;DHT22;3637;51.494;11.958;2022-07-06T01:21:56;18.30;65.80
7192;DHT22;3637;51.494;11.958;2022-07-06T01:24:57;18.30;66.10
7192;DHT22;3637;51.494;11.958;2022-07-06T01:27:59;18.30;66.40
7192;DHT22;3637;51.494;11.958;2022-07-06T01:31:01;18.30;66.70
7192;DHT22;3637;51.494;11.958;2022-07-06T01:34:03;18.30;67.20
7192;DHT22;3637;51.494;11.958;2022-07-06T01:37:06;18.10;67.50
7192;DHT22;3637;51.494;11.958;2022-07-06T01:40:10;18.10;67.90
7192;DHT22;3637;51.494;11.958;2022-07-06T01:43:12;18.10;68.00
7192;DHT22;3637;51.494;11.958;2022-07-06T01:46:14;18.00;68.30
7192;DHT22;3637;51.494;11.958;2022-07-06T01:49:16;18.00;68.70
7192;DHT22;3637;51.494;11.958;2022-07-06T01:52:19;18.00;68.70
7192;DHT22;3637;51.494;11.958;2022-07-06T01:55:21;17.80;69.30
7192;DHT22;3637;51.494;11.958;2022-07-06T01:58:23;17.80;69.70
7192;DHT22;3637;51.494;11.958;2022-07-06T02:01:25;17.90;69.60
7192;DHT22;3637;51.494;11.958;2022-07-06T02:04:27;17.90;69.90
7192;DHT22;3637;51.494;11.958;2022-07-06T02:07:30;17.80;70.20
7192;DHT22;3637;51.494;11.958;2022-07-06T02:10:32;17.80;70.20
7192;DHT22;3637;51.494;11.958;2022-07-06T02:13:34;17.80;70.10
7192;DHT22;3637;51.494;11.958;2022-07-06T02:16:37;17.70;70.60
7192;DHT22;3637;51.494;11.958;2022-07-06T02:19:39;17.60;71.20
7192;DHT22;3637;51.494;11.958;2022-07-06T02:22:42;17.50;71.60
7192;DHT22;3637;51.494;11.958;2022-07-06T02:25:44;17.50;71.60
7192;DHT22;3637;51.494;11.958;2022-07-06T02:28:46;17.60;71.90
7192;DHT22;3637;51.494;11.958;2022-07-06T02:31:48;17.60;71.90
7192;DHT22;3637;51.494;11.958;2022-07-06T02:34:49;17.50;72.20
7192;DHT22;3637;51.494;11.958;2022-07-06T02:37:54;17.50;72.40
7192;DHT22;3637;51.494;11.958;2022-07-06T02:40:56;17.50;72.70
7192;DHT22;3637;51.494;11.958;2022-07-06T02:43:58;17.40;73.10
7192;DHT22;3637;51.494;11.958;2022-07-06T02:47:00;17.30;73.20
7192;DHT22;3637;51.494;11.958;2022-07-06T02:50:02;17.40;73.30
7192;DHT22;3637;51.494;11.958;2022-07-06T02:53:05;17.30;73.50
7192;DHT22;3637;51.494;11.958;2022-07-06T02:56:07;17.30;74.00
7192;DHT22;3637;51.494;11.958;2022-07-06T02:59:09;17.20;74.10
7192;DHT22;3637;51.494;11.958;2022-07-06T03:02:11;17.20;74.30
7192;DHT22;3637;51.494;11.958;2022-07-06T03:05:13;17.30;74.40
7192;DHT22;3637;51.494;11.958;2022-07-06T03:08:16;17.30;74.20
7192;DHT22;3637;51.494;11.958;2022-07-06T03:11:18;17.40;74.00
7192;DHT22;3637;51.494;11.958;2022-07-06T03:14:20;17.30;74.10
7192;DHT22;3637;51.494;11.958;2022-07-06T03:17:22;17.20;74.60
7192;DHT22;3637;51.494;11.958;2022-07-06T03:20:24;17.20;75.10
7192;DHT22;3637;51.494;11.958;2022-07-06T03:23:27;17.20;74.80
7192;DHT22;3637;51.494;11.958;2022-07-06T03:26:29;17.20;75.00
7192;DHT22;3637;51.494;11.958;2022-07-06T03:29:31;17.10;75.50
7192;DHT22;3637;51.494;11.958;2022-07-06T03:32:33;17.10;75.70
7192;DHT22;3637;51.494;11.958;2022-07-06T03:35:35;17.10;75.60
7192;DHT22;3637;51.494;11.958;2022-07-06T03:38:38;17.20;75.60
7192;DHT22;3637;51.494;11.958;2022-07-06T03:41:40;17.20;75.80
7192;DHT22;3637;51.494;11.958;2022-07-06T03:44:42;17.20;75.90
7192;DHT22;3637;51.494;11.958;2022-07-06T03:47:44;17.20;75.90
7192;DHT22;3637;51.494;11.958;2022-07-06T03:50:46;17.00;76.50
7192;DHT22;3637;51.494;11.958;2022-07-06T03:53:50;17.00;76.80
7192;DHT22;3637;51.494;11.958;2022-07-06T03:56:52;17.00;76.70
7192;DHT22;3637;51.494;11.958;2022-07-06T03:59:53;17.00;76.70
7192;DHT22;3637;51.494;11.958;2022-07-06T04:02:55;17.10;76.70
7192;DHT22;3637;51.494;11.958;2022-07-06T04:05:57;17.20;76.40
7192;DHT22;3637;51.494;11.958;2022-07-06T04:09:01;17.20;75.80
7192;DHT22;3637;51.494;11.958;2022-07-06T04:12:03;17.30;75.80
7192;DHT22;3637;51.494;11.958;2022-07-06T04:15:06;17.20;75.40
7192;DHT22;3637;51.494;11.958;2022-07-06T04:18:08;17.30;75.30
7192;DHT22;3637;51.494;11.958;2022-07-06T04:21:10;17.30;75.10
7192;DHT22;3637;51.494;11.958;2022-07-06T04:24:13;17.40;74.80
7192;DHT22;3637;51.494;11.958;2022-07-06T04:27:15;17.30;75.30
7192;DHT22;3637;51.494;11.958;2022-07-06T04:30:17;17.30;75.30
7192;DHT22;3637;51.494;11.958;2022-07-06T04:33:19;17.20;75.30
7192;DHT22;3637;51.494;11.958;2022-07-06T04:36:21;17.30;75.60
7192;DHT22;3637;51.494;11.958;2022-07-06T04:39:24;17.30;75.30
7192;DHT22;3637;51.494;11.958;2022-07-06T04:42:26;17.30;74.80
7192;DHT22;3637;51.494;11.958;2022-07-06T04:45:28;17.20;74.90
7192;DHT22;3637;51.494;11.958;2022-07-06T04:48:30;17.20;75.40
7192;DHT22;3637;51.494;11.958;2022-07-06T04:51:32;17.30;75.20
7192;DHT22;3637;51.494;11.958;2022-07-06T04:54:36;17.30;75.00
7192;DHT22;3637;51.494;11.958;2022-07-06T04:57:38;17.40;74.70
7192;DHT22;3637;51.494;11.958;2022-07-06T05:00:39;17.40;74.50
7192;DHT22;3637;51.494;11.958;2022-07-06T05:03:41;17.40;74.90
7192;DHT22;3637;51.494;11.958;2022-07-06T05:06:43;17.30;74.60
7192;DHT22;3637;51.494;11.958;2022-07-06T05:09:47;17.30;75.30
7192;DHT22;3637;51.494;11.958;2022-07-06T05:12:49;17.50;74.80
7192;DHT22;3637;51.494;11.958;2022-07-06T05:15:51;17.50;74.60
7192;DHT22;3637;51.494;11.958;2022-07-06T05:18:53;17.50;74.40
7192;DHT22;3637;51.494;11.958;2022-07-06T05:21:55;17.50;74.20
7192;DHT22;3637;51.494;11.958;2022-07-06T05:24:58;17.50;72.10
7192;DHT22;3637;51.494;11.958;2022-07-06T05:28:00;17.40;72.10
7192;DHT22;3637;51.494;11.958;2022-07-06T05:31:02;17.40;71.90
7192;DHT22;3637;51.494;11.958;2022-07-06T05:34:04;17.50;72.00
7192;DHT22;3637;51.494;11.958;2022-07-06T05:37:06;17.60;71.70
7192;DHT22;3637;51.494;11.958;2022-07-06T05:40:11;17.70;71.40
7192;DHT22;3637;51.494;11.958;2022-07-06T05:43:13;17.60;71.50
7192;DHT22;3637;51.494;11.958;2022-07-06T05:46:15;17.60;71.20
7192;DHT22;3637;51.494;11.958;2022-07-06T05:49:16;17.60;70.50
7192;DHT22;3637;51.494;11.958;2022-07-06T05:52:36;17.60;70.10
7192;DHT22;3637;51.494;11.958;2022-07-06T05:55:39;17.70;70.00
7192;DHT22;3637;51.494;11.958;2022-07-06T05:58:41;17.60;70.00
7192;DHT22;3637;51.494;11.958;2022-07-06T06:01:43;17.60;70.30
7192;DHT22;3637;51.494;11.958;2022-07-06T06:04:45;17.60;70.20
7192;DHT22;3637;51.494;11.958;2022-07-06T06:07:47;17.60;70.60
7192;DHT22;3637;51.494;11.958;2022-07-06T06:10:53;17.60;70.10
7192;DHT22;3637;51.494;11.958;2022-07-06T06:13:55;17.60;70.00
7192;DHT22;3637;51.494;11.958;2022-07-06T06:16:57;17.70;69.00
7192;DHT22;3637;51.494;11.958;2022-07-06T06:19:59;17.60;68.90
7192;DHT22;3637;51.494;11.958;2022-07-06T06:23:01;17.50;69.00
7192;DHT22;3637;51.494;11.958;2022-07-06T06:26:06;17.60;69.20
7192;DHT22;3637;51.494;11.958;2022-07-06T06:29:08;17.70;67.80
7192;DHT22;3637;51.494;11.958;2022-07-06T06:32:10;17.80;68.00
7192;DHT22;3637;51.494;11.958;2022-07-06T06:35:13;17.80;67.80
7192;DHT22;3637;51.494;11.958;2022-07-06T06:38:15;17.90;67.90
7192;DHT22;3637;51.494;11.958;2022-07-06T06:41:19;17.90;68.30
7192;DHT22;3637;51.494;11.958;2022-07-06T06:44:21;17.90;67.80
7192;DHT22;3637;51.494;11.958;2022-07-06T06:47:23;17.90;68.10
7192;DHT22;3637;51.494;11.958;2022-07-06T06:50:25;17.90;68.60
7192;DHT22;3637;51.494;11.958;2022-07-06T06:53:27;18.00;68.80
7192;DHT22;3637;51.494;11.958;2022-07-06T06:56:30;18.20;68.60
7192;DHT22;3637;51.494;11.958;2022-07-06T06:59:32;18.30;67.10
7192;DHT22;3637;51.494;11.958;2022-07-06T07:02:34;18.30;65.40
7192;DHT22;3637;51.494;11.958;2022-07-06T07:05:36;18.30;65.60
7192;DHT22;3637;51.494;11.958;2022-07-06T07:08:38;18.30;63.90
7192;DHT22;3637;51.494;11.958;2022-07-06T07:11:41;18.20;62.10
7192;DHT22;3637;51.494;11.958;2022-07-06T07:14:43;18.10;62.60
7192;DHT22;3637;51.494;11.958;2022-07-06T07:17:45;18.10;62.60
7192;DHT22;3637;51.494;11.958;2022-07-06T07:20:47;18.30;62.90
7192;DHT22;3637;51.494;11.958;2022-07-06T07:23:49;18.50;62.70
7192;DHT22;3637;51.494;11.958;2022-07-06T07:26:52;18.70;62.40
7192;DHT22;3637;51.494;11.958;2022-07-06T07:29:54;18.70;61.80
7192;DHT22;3637;51.494;11.958;2022-07-06T07:32:56;18.80;62.00
7192;DHT22;3637;51.494;11.958;2022-07-06T07:36:00;18.90;62.30
7192;DHT22;3637;51.494;11.958;2022-07-06T07:39:02;19.00;62.20
7192;DHT22;3637;51.494;11.958;2022-07-06T07:42:06;19.00;63.00
7192;DHT22;3637;51.494;11.958;2022-07-06T07:45:09;19.10;62.80
7192;DHT22;3637;51.494;11.958;2022-07-06T07:48:11;19.10;61.10
7192;DHT22;3637;51.494;11.958;2022-07-06T07:51:13;19.00;61.70
7192;DHT22;3637;51.494;11.958;2022-07-06T07:54:15;19.00;61.30
7192;DHT22;3637;51.494;11.958;2022-07-06T07:57:18;19.00;60.10
7192;DHT22;3637;51.494;11.958;2022-07-06T08:00:20;19.00;60.30
7192;DHT22;3637;51.494;11.958;2022-07-06T08:03:22;19.00;60.60
7192;DHT22;3637;51.494;11.958;2022-07-06T08:06:24;19.00;60.00
7192;DHT22;3637;51.494;11.958;2022-07-06T08:09:26;19.10;59.10
7192;DHT22;3637;51.494;11.958;2022-07-06T08:12:30;19.10;58.20
7192;DHT22;3637;51.494;11.958;2022-07-06T08:15:31;19.20;58.10
7192;DHT22;3637;51.494;11.958;2022-07-06T08:18:33;19.10;57.20
7192;DHT22;3637;51.494;11.958;2022-07-06T08:21:35;19.20;55.80
7192;DHT22;3637;51.494;11.958;2022-07-06T08:24:37;19.10;55.70
7192;DHT22;3637;51.494;11.958;2022-07-06T08:27:41;19.10;55.80
7192;DHT22;3637;51.494;11.958;2022-07-06T08:30:42;19.10;56.10
7192;DHT22;3637;51.494;11.958;2022-07-06T08:33:44;19.20;55.60
7192;DHT22;3637;51.494;11.958;2022-07-06T08:36:46;19.20;55.60
7192;DHT22;3637;51.494;11.958;2022-07-06T08:39:48;19.10;55.30
7192;DHT22;3637;51.494;11.958;2022-07-06T08:42:53;19.10;56.80
7192;DHT22;3637;51.494;11.958;2022-07-06T08:45:55;19.30;56.20
7192;DHT22;3637;51.494;11.958;2022-07-06T08:48:57;19.30;56.30
7192;DHT22;3637;51.494;11.958;2022-07-06T08:52:02;19.30;56.10
7192;DHT22;3637;51.494;11.958;2022-07-06T08:55:05;19.30;55.70
7192;DHT22;3637;51.494;11.958;2022-07-06T08:58:09;19.50;56.30
7192;DHT22;3637;51.494;11.958;2022-07-06T09:01:11;19.60;56.00
7192;DHT22;3637;51.494;11.958;2022-07-06T09:04:15;19.60;55.30
7192;DHT22;3637;51.494;11.958;2022-07-06T09:07:17;19.50;56.30
7192;DHT22;3637;51.494;11.958;2022-07-06T09:10:21;19.30;55.90
7192;DHT22;3637;51.494;11.958;2022-07-06T09:13:24;19.20;56.30
7192;DHT22;3637;51.494;11.958;2022-07-06T09:16:28;19.30;55.60
7192;DHT22;3637;51.494;11.958;2022-07-06T09:19:31;19.30;54.10
7192;DHT22;3637;51.494;11.958;2022-07-06T09:22:33;19.30;54.20
7192;DHT22;3637;51.494;11.958;2022-07-06T09:25:35;19.40;53.30
7192;DHT22;3637;51.494;11.958;2022-07-06T09:28:42;19.50;53.10
7192;DHT22;3637;51.494;11.958;2022-07-06T09:31:56;19.50;53.60
7192;DHT22;3637;51.494;11.958;2022-07-06T09:34:58;19.80;53.30
7192;DHT22;3637;51.494;11.958;2022-07-06T09:38:03;19.80;52.70
7192;DHT22;3637;51.494;11.958;2022-07-06T09:41:05;19.90;53.00
7192;DHT22;3637;51.494;11.958;2022-07-06T09:44:09;19.90;52.70
7192;DHT22;3637;51.494;11.958;2022-07-06T09:47:11;20.10;52.30
7192;DHT22;3637;51.494;11.958;2022-07-06T09:50:15;20.20;51.10
7192;DHT22;3637;51.494;11.958;2022-07-06T09:53:18;20.10;51.40
7192;DHT22;3637;51.494;11.958;2022-07-06T09:56:21;20.10;50.80
7192;DHT22;3637;51.494;11.958;2022-07-06T09:59:25;20.00;50.50
7192;DHT22;3637;51.494;11.958;2022-07-06T10:02:28;19.90;50.20
7192;DHT22;3637;51.494;11.958;2022-07-06T10:05:31;19.80;51.00
7192;DHT22;3637;51.494;11.958;2022-07-06T10:08:34;20.00;50.40
7192;DHT22;3637;51.494;11.958;2022-07-06T10:11:39;20.10;49.70
7192;DHT22;3637;51.494;11.958;2022-07-06T10:14:43;20.00;49.10
7192;DHT22;3637;51.494;11.958;2022-07-06T10:17:46;20.20;49.80
7192;DHT22;3637;51.494;11.958;2022-07-06T10:20:49;20.20;49.30
7192;DHT22;3637;51.494;11.958;2022-07-06T10:23:52;20.20;49.20
7192;DHT22;3637;51.494;11.958;2022-07-06T10:26:55;20.10;48.90
7192;DHT22;3637;51.494;11.958;2022-07-06T10:29:58;20.20;50.70
7192;DHT22;3637;51.494;11.958;2022-07-06T10:33:00;20.30;49.30
7192;DHT22;3637;51.494;11.958;2022-07-06T10:36:03;20.30;49.10
7192;DHT22;3637;51.494;11.958;2022-07-06T10:39:05;20.30;49.90
7192;DHT22;3637;51.494;11.958;2022-07-06T10:42:40;20.20;48.40
7192;DHT22;3637;51.494;11.958;2022-07-06T10:45:53;20.20;48.40
7192;DHT22;3637;51.494;11.958;2022-07-06T10:48:56;20.20;48.30
7192;DHT22;3637;51.494;11.958;2022-07-06T10:51:59;20.20;48.40
7192;DHT22;3637;51.494;11.958;2022-07-06T10:55:00;20.20;48.10
7192;DHT22;3637;51.494;11.958;2022-07-06T10:58:03;20.30;48.60
7192;DHT22;3637;51.494;11.958;2022-07-06T11:01:07;20.30;49.70
7192;DHT22;3637;51.494;11.958;2022-07-06T11:04:09;20.50;48.60
7192;DHT22;3637;51.494;11.958;2022-07-06T11:07:13;20.40;48.30
7192;DHT22;3637;51.494;11.958;2022-07-06T11:10:15;20.30;48.20
7192;DHT22;3637;51.494;11.958;2022-07-06T11:13:26;20.40;49.10
7192;DHT22;3637;51.494;11.958;2022-07-06T11:16:31;20.50;47.70
7192;DHT22;3637;51.494;11.958;2022-07-06T11:19:37;20.60;47.00
7192;DHT22;3637;51.494;11.958;2022-07-06T11:22:39;20.70;46.20
7192;DHT22;3637;51.494;11.958;2022-07-06T11:25:41;20.70;47.00
7192;DHT22;3637;51.494;11.958;2022-07-06T11:28:46;20.80;47.20
7192;DHT22;3637;51.494;11.958;2022-07-06T11:31:52;21.00;46.20
7192;DHT22;3637;51.494;11.958;2022-07-06T11:34:54;21.10;46.70
7192;DHT22;3637;51.494;11.958;2022-07-06T11:37:56;21.00;45.20
7192;DHT22;3637;51.494;11.958;2022-07-06T11:40:58;21.00;44.50
7192;DHT22;3637;51.494;11.958;2022-07-06T11:44:01;21.10;45.30
7192;DHT22;3637;51.494;11.958;2022-07-06T11:47:05;21.20;45.30
7192;DHT22;3637;51.494;11.958;2022-07-06T11:50:08;21.20;45.10
7192;DHT22;3637;51.494;11.958;2022-07-06T11:53:10;21.20;45.10
7192;DHT22;3637;51.494;11.958;2022-07-06T11:56:14;21.10;45.90
7192;DHT22;3637;51.494;11.958;2022-07-06T11:59:20;21.10;45.00
7192;DHT22;3637;51.494;11.958;2022-07-06T12:02:24;21.10;44.50
7192;DHT22;3637;51.494;11.958;2022-07-06T12:05:29;21.10;45.00
7192;DHT22;3637;51.494;11.958;2022-07-06T12:08:32;21.00;44.80
7192;DHT22;3637;51.494;11.958;2022-07-06T12:11:36;21.10;44.60
7192;DHT22;3637;51.494;11.958;2022-07-06T12:14:41;21.10;45.30
7192;DHT22;3637;51.494;11.958;2022-07-06T12:17:48;21.10;45.80
7192;DHT22;3637;51.494;11.958;2022-07-06T12:20:52;21.10;46.30
7192;DHT22;3637;51.494;11.958;2022-07-06T12:23:56;21.10;46.90
7192;DHT22;3637;51.494;11.958;2022-07-06T12:27:09;21.20;47.90
7192;DHT22;3637;51.494;11.958;2022-07-06T12:30:12;21.20;47.50
7192;DHT22;3637;51.494;11.958;2022-07-06T12:33:16;21.20;48.10
7192;DHT22;3637;51.494;11.958;2022-07-06T12:36:19;21.10;48.40
7192;DHT22;3637;51.494;11.958;2022-07-06T12:39:22;21.10;48.60
7192;DHT22;3637;51.494;11.958;2022-07-06T12:42:24;21.20;47.00
7192;DHT22;3637;51.494;11.958;2022-07-06T12:45:26;21.30;46.50
7192;DHT22;3637;51.494;11.958;2022-07-06T12:48:30;21.50;46.70
7192;DHT22;3637;51.494;11.958;2022-07-06T12:51:50;21.70;45.20
7192;DHT22;3637;51.494;11.958;2022-07-06T12:54:52;21.80;45.00
7192;DHT22;3637;51.494;11.958;2022-07-06T12:57:55;21.90;44.50
7192;DHT22;3637;51.494;11.958;2022-07-06T13:00:57;21.80;45.20
7192;DHT22;3637;51.494;11.958;2022-07-06T13:04:00;21.70;45.20
7192;DHT22;3637;51.494;11.958;2022-07-06T13:07:03;21.60;44.80
7192;DHT22;3637;51.494;11.958;2022-07-06T13:10:08;21.60;45.30
7192;DHT22;3637;51.494;11.958;2022-07-06T13:13:10;21.70;46.10
7192;DHT22;3637;51.494;11.958;2022-07-06T13:16:12;21.80;46.00
7192;DHT22;3637;51.494;11.958;2022-07-06T13:19:15;21.80;45.30
7192;DHT22;3637;51.494;11.958;2022-07-06T13:22:17;21.60;45.50
7192;DHT22;3637;51.494;11.958;2022-07-06T13:25:20;21.50;45.20
7192;DHT22;3637;51.494;11.958;2022-07-06T13:28:21;21.50;45.40
7192;DHT22;3637;51.494;11.958;2022-07-06T13:31:23;21.40;45.40
7192;DHT22;3637;51.494;11.958;2022-07-06T13:34:27;21.40;46.40
7192;DHT22;3637;51.494;11.958;2022-07-06T13:37:28;21.40;45.60
7192;DHT22;3637;51.494;11.958;2022-07-06T13:40:30;21.30;45.90
7192;DHT22;3637;51.494;11.958;2022-07-06T13:43:32;21.30;46.30
7192;DHT22;3637;51.494;11.958;2022-07-06T13:46:38;21.30;46.40
7192;DHT22;3637;51.494;11.958;2022-07-06T13:49:42;21.30;46.50
7192;DHT22;3637;51.494;11.958;2022-07-06T13:52:47;21.30;46.50
7192;DHT22;3637;51.494;11.958;2022-07-06T13:55:49;21.20;47.00
7192;DHT22;3637;51.494;11.958;2022-07-06T13:58:52;21.20;46.90
7192;DHT22;3637;51.494;11.958;2022-07-06T14:01:55;21.10;46.80
7192;DHT22;3637;51.494;11.958;2022-07-06T14:04:58;21.20;46.80
7192;DHT22;3637;51.494;11.958;2022-07-06T14:08:00;21.20;47.20
7192;DHT22;3637;51.494;11.958;2022-07-06T14:11:02;21.20;47.30
7192;DHT22;3637;51.494;11.958;2022-07-06T14:14:05;21.40;46.10
7192;DHT22;3637;51.494;11.958;2022-07-06T14:17:08;21.40;46.00
7192;DHT22;3637;51.494;11.958;2022-07-06T14:20:11;21.50;45.70
7192;DHT22;3637;51.494;11.958;2022-07-06T14:23:14;21.50;45.50
7192;DHT22;3637;51.494;11.958;2022-07-06T14:26:16;21.40;45.60
7192;DHT22;3637;51.494;11.958;2022-07-06T14:29:18;21.40;45.30
7192;DHT22;3637;51.494;11.958;2022-07-06T14:32:19;21.50;45.80
7192;DHT22;3637;51.494;11.958;2022-07-06T14:35:23;21.50;45.60
7192;DHT22;3637;51.494;11.958;2022-07-06T14:38:25;21.50;45.20
7192;DHT22;3637;51.494;11.958;2022-07-06T14:41:28;21.50;45.30
7192;DHT22;3637;51.494;11.958;2022-07-06T14:44:30;21.40;45.20
7192;DHT22;3637;51.494;11.958;2022-07-06T14:47:31;21.30;45.40
7192;DHT22;3637;51.494;11.958;2022-07-06T14:50:35;21.40;45.40
7192;DHT22;3637;51.494;11.958;2022-07-06T14:53:37;21.30;44.70
7192;DHT22;3637;51.494;11.958;2022-07-06T14:56:39;21.20;44.90
7192;DHT22;3637;51.494;11.958;2022-07-06T14:59:40;21.20;45.10
7192;DHT22;3637;51.494;11.958;2022-07-06T15:02:42;21.30;44.80
7192;DHT22;3637;51.494;11.958;2022-07-06T15:05:46;21.20;44.60
7192;DHT22;3637;51.494;11.958;2022-07-06T15:08:48;21.10;45.60
7192;DHT22;3637;51.494;11.958;2022-07-06T15:11:50;21.30;44.70
7192;DHT22;3637;51.494;11.958;2022-07-06T15:14:52;21.30;45.20
7192;DHT22;3637;51.494;11.958;2022-07-06T15:17:54;21.30;44.60
7192;DHT22;3637;51.494;11.958;2022-07-06T15:20:57;21.40;44.10
7192;DHT22;3637;51.494;11.958;2022-07-06T15:23:59;21.60;44.80
7192;DHT22;3637;51.494;11.958;2022-07-06T15:27:02;21.60;44.10
7192;DHT22;3637;51.494;11.958;2022-07-06T15:30:04;21.70;44.60
7192;DHT22;3637;51.494;11.958;2022-07-06T15:33:07;21.50;44.40
7192;DHT22;3637;51.494;11.958;2022-07-06T15:36:10;21.50;45.10
7192;DHT22;3637;51.494;11.958;2022-07-06T15:39:12;21.30;44.90
7192;DHT22;3637;51.494;11.958;2022-07-06T15:42:14;21.30;44.70
7192;DHT22;3637;51.494;11.958;2022-07-06T15:45:16;21.30;44.90
7192;DHT22;3637;51.494;11.958;2022-07-06T15:48:18;21.10;45.20
7192;DHT22;3637;51.494;11.958;2022-07-06T15:51:21;21.10;44.70
7192;DHT22;3637;51.494;11.958;2022-07-06T15:54:23;21.10;45.00
7192;DHT22;3637;51.494;11.958;2022-07-06T15:57:25;21.00;44.50
7192;DHT22;3637;51.494;11.958;2022-07-06T16:00:27;21.00;45.00
7192;DHT22;3637;51.494;11.958;2022-07-06T16:03:29;21.00;44.80
7192;DHT22;3637;51.494;11.958;2022-07-06T16:06:32;21.00;44.50
7192;DHT22;3637;51.494;11.958;2022-07-06T16:09:34;21.10;44.60
7192;DHT22;3637;51.494;11.958;2022-07-06T16:12:36;21.10;44.20
7192;DHT22;3637;51.494;11.958;2022-07-06T16:15:38;21.00;45.00
7192;DHT22;3637;51.494;11.958;2022-07-06T16:18:40;21.10;44.90
7192;DHT22;3637;51.494;11.958;2022-07-06T16:21:46;21.20;44.70
7192;DHT22;3637;51.494;11.958;2022-07-06T16:24:48;21.20;45.00
7192;DHT22;3637;51.494;11.958;2022-07-06T16:27:49;21.10;44.30
7192;DHT22;3637;51.494;11.958;2022-07-06T16:30:52;21.00;45.20
7192;DHT22;3637;51.494;11.958;2022-07-06T16:33:54;21.00;45.20
7192;DHT22;3637;51.494;11.958;2022-07-06T16:36:57;20.90;44.70
7192;DHT22;3637;51.494;11.958;2022-07-06T16:39:59;20.90;44.60
7192;DHT22;3637;51.494;11.958;2022-07-06T16:43:01;20.90;44.60
7192;DHT22;3637;51.494;11.958;2022-07-06T16:46:03;21.00;44.50
7192;DHT22;3637;51.494;11.958;2022-07-06T16:49:05;21.00;45.00
7192;DHT22;3637;51.494;11.958;2022-07-06T16:52:08;21.10;44.30
7192;DHT22;3637;51.494;11.958;2022-07-06T16:55:10;21.10;43.60
7192;DHT22;3637;51.494;11.958;2022-07-06T16:58:12;21.00;43.60
7192;DHT22;3637;51.494;11.958;2022-07-06T17:01:14;21.00;44.00
7192;DHT22;3637;51.494;11.958;2022-07-06T17:04:16;20.90;44.10
7192;DHT22;3637;51.494;11.958;2022-07-06T17:07:19;20.80;44.60
7192;DHT22;3637;51.494;11.958;2022-07-06T17:10:21;20.80;44.10
7192;DHT22;3637;51.494;11.958;2022-07-06T17:13:23;20.70;44.20
7192;DHT22;3637;51.494;11.958;2022-07-06T17:16:27;20.70;44.10
7192;DHT22;3637;51.494;11.958;2022-07-06T17:19:29;20.80;44.10
7192;DHT22;3637;51.494;11.958;2022-07-06T17:22:32;20.70;44.00
7192;DHT22;3637;51.494;11.958;2022-07-06T17:25:34;20.60;44.40
7192;DHT22;3637;51.494;11.958;2022-07-06T17:28:36;20.70;44.80
7192;DHT22;3637;51.494;11.958;2022-07-06T17:31:38;20.50;44.70
7192;DHT22;3637;51.494;11.958;2022-07-06T17:34:40;20.40;45.10
7192;DHT22;3637;51.494;11.958;2022-07-06T17:37:45;20.40;45.40
7192;DHT22;3637;51.494;11.958;2022-07-06T17:40:46;20.40;45.10
7192;DHT22;3637;51.494;11.958;2022-07-06T17:43:48;20.40;45.30
7192;DHT22;3637;51.494;11.958;2022-07-06T17:46:50;20.30;45.50
7192;DHT22;3637;51.494;11.958;2022-07-06T17:49:52;20.30;45.50
7192;DHT22;3637;51.494;11.958;2022-07-06T17:52:56;20.20;45.70
7192;DHT22;3637;51.494;11.958;2022-07-06T17:55:57;20.30;45.60
7192;DHT22;3637;51.494;11.958;2022-07-06T17:58:59;20.30;45.60
7192;DHT22;3637;51.494;11.958;2022-07-06T18:02:01;20.20;45.70
7192;DHT22;3637;51.494;11.958;2022-07-06T18:05:04;20.30;46.00
7192;DHT22;3637;51.494;11.958;2022-07-06T18:08:07;20.30;46.10
7192;DHT22;3637;51.494;11.958;2022-07-06T18:11:09;20.30;45.50
7192;DHT22;3637;51.494;11.958;2022-07-06T18:14:11;20.20;45.70
7192;DHT22;3637;51.494;11.958;2022-07-06T18:17:14;20.30;45.60
7192;DHT22;3637;51.494;11.958;2022-07-06T18:20:17;20.30;44.70
7192;DHT22;3637;51.494;11.958;2022-07-06T18:23:21;20.30;45.10
7192;DHT22;3637;51.494;11.958;2022-07-06T18:26:23;20.30;45.70
7192;DHT22;3637;51.494;11.958;2022-07-06T18:29:25;20.30;45.30
7192;DHT22;3637;51.494;11.958;2022-07-06T18:32:27;20.30;45.30
7192;DHT22;3637;51.494;11.958;2022-07-06T18:35:29;20.30;45.50
7192;DHT22;3637;51.494;11.958;2022-07-06T18:38:32;20.30;45.90
7192;DHT22;3637;51.494;11.958;2022-07-06T18:41:34;20.30;46.90
7192;DHT22;3637;51.494;11.958;2022-07-06T18:44:36;20.30;46.50
7192;DHT22;3637;51.494;11.958;2022-07-06T18:47:38;20.30;46.70
7192;DHT22;3637;51.494;11.958;2022-07-06T18:50:41;20.20;46.80
7192;DHT22;3637;51.494;11.958;2022-07-06T18:53:44;20.10;47.00
7192;DHT22;3637;51.494;11.958;2022-07-06T18:56:46;20.10;47.10
7192;DHT22;3637;51.494;11.958;2022-07-06T18:59:48;20.20;46.80
7192;DHT22;3637;51.494;11.958;2022-07-06T19:02:50;20.10;46.70
7192;DHT22;3637;51.494;11.958;2022-07-06T19:05:52;19.90;46.70
7192;DHT22;3637;51.494;11.958;2022-07-06T19:08:57;19.90;46.50
7192;DHT22;3637;51.494;11.958;2022-07-06T19:11:59;19.90;46.90
7192;DHT22;3637;51.494;11.958;2022-07-06T19:15:00;19.90;47.10
7192;DHT22;3637;51.494;11.958;2022-07-06T19:18:03;19.90;47.60
7192;DHT22;3637;51.494;11.958;2022-07-06T19:21:05;19.80;47.90
7192;DHT22;3637;51.494;11.958;2022-07-06T19:24:09;19.80;48.40
7192;DHT22;3637;51.494;11.958;2022-07-06T19:27:10;19.70;48.60
7192;DHT22;3637;51.494;11.958;2022-07-06T19:30:13;19.60;49.10
7192;DHT22;3637;51.494;11.958;2022-07-06T19:33:15;19.50;48.90